sensor_id;sensor_type;location;lat;lon;timestamp;P1;durP1;ratioP1;P2;durP2;ratioP2
7529;SDS011;3806;52.270;10.544;2022-07-23T00:00:22;10.23;;;5.00;;
7529;SDS011;3806;52.270;10.544;2022-07-23T00:02:48;9.73;;;4.80;;
7529;SDS011;3806;52.270;10.544;2022-07-23T00:05:13;9.60;;;4.93;;
7529;SDS011;3806;52.270;10.544;2022-07-23T00:07:39;7.88;;;4.82;;
7529;SDS011;3806;52.270;10.544;2022-07-23T00:10:05;8.02;;;4.47;;
7529;SDS011;3806;52.270;10.544;2022-07-23T00:12:31;8.80;;;5.00;;
7529;SDS011;3806;52.270;10.544;2022-07-23T00:14:57;6.55;;;4.78;;
7529;SDS011;3806;52.270;10.544;2022-07-23T00:17:23;8.15;;;4.97;;
7529;SDS011;3806;52.270;10.544;2022-07-23T00:19:48;10.50;;;4.60;;
7529;SDS011;3806;52.270;10.544;2022-07-23T00:22:14;7.45;;;4.80;;
7529;SDS011;3806;52.270;10.544;2022-07-23T00:24:40;9.90;;;5.75;;
7529;SDS011;3806;52.270;10.544;2022-07-23T00:27:05;8.82;;;4.63;;
7529;SDS011;3806;52.270;10.544;2022-07-23T00:29:31;10.57;;;5.43;;
7529;SDS011;3806;52.270;10.544;2022-07-23T00:31:56;6.57;;;4.55;;
7529;SDS011;3806;52.270;10.544;2022-07-23T00:34:22;8.65;;;5.32;;
7529;SDS011;3806;52.270;10.544;2022-07-23T00:36:47;6.47;;;4.93;;
7529;SDS011;3806;52.270;10.544;2022-07-23T00:39:13;8.07;;;5.20;;
7529;SDS011;3806;52.270;10.544;2022-07-23T00:41:39;7.82;;;5.45;;
7529;SDS011;3806;52.270;10.544;2022-07-23T00:44:14;8.07;;;4.50;;
7529;SDS011;3806;52.270;10.544;2022-07-23T00:49:19;9.43;;;4.53;;
7529;SDS011;3806;52.270;10.544;2022-07-23T00:51:45;7.00;;;4.50;;
7529;SDS011;3806;52.270;10.544;2022-07-23T00:54:11;7.53;;;4.60;;
7529;SDS011;3806;52.270;10.544;2022-07-23T00:56:37;8.75;;;4.60;;
7529;SDS011;3806;52.270;10.544;2022-07-23T00:59:03;7.28;;;4.95;;
7529;SDS011;3806;52.270;10.544;2022-07-23T01:01:30;7.45;;;4.38;;
7529;SDS011;3806;52.270;10.544;2022-07-23T01:03:57;8.63;;;4.88;;
7529;SDS011;3806;52.270;10.544;2022-07-23T01:06:22;6.35;;;4.38;;
7529;SDS011;3806;52.270;10.544;2022-07-23T01:08:48;9.18;;;4.93;;
7529;SDS011;3806;52.270;10.544;2022-07-23T01:11:14;9.25;;;5.00;;
7529;SDS011;3806;52.270;10.544;2022-07-23T01:13:42;8.02;;;4.20;;
7529;SDS011;3806;52.270;10.544;2022-07-23T01:16:08;6.97;;;4.43;;
7529;SDS011;3806;52.270;10.544;2022-07-23T01:18:34;8.32;;;5.10;;
7529;SDS011;3806;52.270;10.544;2022-07-23T01:20:59;9.70;;;4.63;;
7529;SDS011;3806;52.270;10.544;2022-07-23T01:23:25;6.97;;;4.38;;
7529;SDS011;3806;52.270;10.544;2022-07-23T01:25:54;9.20;;;3.88;;
7529;SDS011;3806;52.270;10.544;2022-07-23T01:28:20;6.60;;;4.35;;
7529;SDS011;3806;52.270;10.544;2022-07-23T01:30:46;6.97;;;4.30;;
7529;SDS011;3806;52.270;10.544;2022-07-23T01:33:12;10.32;;;4.63;;
7529;SDS011;3806;52.270;10.544;2022-07-23T01:35:38;10.20;;;4.68;;
7529;SDS011;3806;52.270;10.544;2022-07-23T01:38:03;9.13;;;4.65;;
7529;SDS011;3806;52.270;10.544;2022-07-23T01:40:29;8.73;;;5.20;;
7529;SDS011;3806;52.270;10.544;2022-07-23T01:42:55;12.00;;;4.95;;
7529;SDS011;3806;52.270;10.544;2022-07-23T01:45:20;7.78;;;4.55;;
7529;SDS011;3806;52.270;10.544;2022-07-23T01:47:47;6.88;;;4.40;;
7529;SDS011;3806;52.270;10.544;2022-07-23T01:50:13;6.95;;;4.35;;
7529;SDS011;3806;52.270;10.544;2022-07-23T01:52:38;8.73;;;4.25;;
7529;SDS011;3806;52.270;10.544;2022-07-23T01:55:04;6.65;;;4.72;;
7529;SDS011;3806;52.270;10.544;2022-07-23T01:57:31;6.40;;;4.40;;
7529;SDS011;3806;52.270;10.544;2022-07-23T01:59:57;8.95;;;5.25;;
7529;SDS011;3806;52.270;10.544;2022-07-23T02:02:22;6.47;;;4.95;;
7529;SDS011;3806;52.270;10.544;2022-07-23T02:04:48;6.53;;;4.53;;
7529;SDS011;3806;52.270;10.544;2022-07-23T02:07:13;8.50;;;4.43;;
7529;SDS011;3806;52.270;10.544;2022-07-23T02:09:39;5.65;;;3.97;;
7529;SDS011;3806;52.270;10.544;2022-07-23T02:12:04;6.32;;;5.13;;
7529;SDS011;3806;52.270;10.544;2022-07-23T02:14:30;9.35;;;4.38;;
7529;SDS011;3806;52.270;10.544;2022-07-23T02:16:56;11.27;;;4.90;;
7529;SDS011;3806;52.270;10.544;2022-07-23T02:19:21;11.27;;;4.70;;
7529;SDS011;3806;52.270;10.544;2022-07-23T02:21:47;8.75;;;4.57;;
7529;SDS011;3806;52.270;10.544;2022-07-23T02:24:13;9.38;;;4.65;;
7529;SDS011;3806;52.270;10.544;2022-07-23T02:26:39;8.10;;;4.97;;
7529;SDS011;3806;52.270;10.544;2022-07-23T02:29:05;8.05;;;4.70;;
7529;SDS011;3806;52.270;10.544;2022-07-23T02:31:31;9.80;;;5.32;;
7529;SDS011;3806;52.270;10.544;2022-07-23T02:33:56;9.35;;;4.53;;
7529;SDS011;3806;52.270;10.544;2022-07-23T02:36:22;8.30;;;5.13;;
7529;SDS011;3806;52.270;10.544;2022-07-23T02:38:48;6.70;;;5.18;;
7529;SDS011;3806;52.270;10.544;2022-07-23T02:41:13;10.68;;;6.00;;
7529;SDS011;3806;52.270;10.544;2022-07-23T02:43:39;8.38;;;4.95;;
7529;SDS011;3806;52.270;10.544;2022-07-23T02:46:05;9.65;;;6.20;;
7529;SDS011;3806;52.270;10.544;2022-07-23T02:48:30;8.10;;;5.20;;
7529;SDS011;3806;52.270;10.544;2022-07-23T02:50:56;9.70;;;4.93;;
7529;SDS011;3806;52.270;10.544;2022-07-23T02:53:24;9.45;;;5.40;;
7529;SDS011;3806;52.270;10.544;2022-07-23T02:55:50;9.10;;;5.50;;
7529;SDS011;3806;52.270;10.544;2022-07-23T02:58:16;10.02;;;5.82;;
7529;SDS011;3806;52.270;10.544;2022-07-23T03:00:42;7.47;;;5.25;;
7529;SDS011;3806;52.270;10.544;2022-07-23T03:03:08;11.10;;;4.80;;
7529;SDS011;3806;52.270;10.544;2022-07-23T03:05:33;10.07;;;5.78;;
7529;SDS011;3806;52.270;10.544;2022-07-23T03:07:59;11.95;;;5.75;;
7529;SDS011;3806;52.270;10.544;2022-07-23T03:10:25;11.02;;;5.38;;
7529;SDS011;3806;52.270;10.544;2022-07-23T03:12:50;11.48;;;5.53;;
7529;SDS011;3806;52.270;10.544;2022-07-23T03:15:16;12.50;;;6.03;;
7529;SDS011;3806;52.270;10.544;2022-07-23T03:17:42;11.45;;;5.70;;
7529;SDS011;3806;52.270;10.544;2022-07-23T03:20:07;11.50;;;5.95;;
7529;SDS011;3806;52.270;10.544;2022-07-23T03:22:34;16.52;;;5.60;;
7529;SDS011;3806;52.270;10.544;2022-07-23T03:24:59;9.65;;;5.93;;
7529;SDS011;3806;52.270;10.544;2022-07-23T03:27:26;9.23;;;5.85;;
7529;SDS011;3806;52.270;10.544;2022-07-23T03:29:54;9.25;;;5.28;;
7529;SDS011;3806;52.270;10.544;2022-07-23T03:32:22;9.15;;;5.57;;
7529;SDS011;3806;52.270;10.544;2022-07-23T03:34:48;7.68;;;5.55;;
7529;SDS011;3806;52.270;10.544;2022-07-23T03:37:14;10.02;;;5.05;;
7529;SDS011;3806;52.270;10.544;2022-07-23T03:39:40;9.10;;;4.78;;
7529;SDS011;3806;52.270;10.544;2022-07-23T03:42:06;9.45;;;4.75;;
7529;SDS011;3806;52.270;10.544;2022-07-23T03:44:32;11.70;;;4.75;;
7529;SDS011;3806;52.270;10.544;2022-07-23T03:46:58;7.97;;;4.20;;
7529;SDS011;3806;52.270;10.544;2022-07-23T03:49:24;9.90;;;5.05;;
7529;SDS011;3806;52.270;10.544;2022-07-23T03:51:50;7.72;;;4.68;;
7529;SDS011;3806;52.270;10.544;2022-07-23T03:54:15;7.53;;;3.85;;
7529;SDS011;3806;52.270;10.544;2022-07-23T03:56:41;8.63;;;4.13;;
7529;SDS011;3806;52.270;10.544;2022-07-23T03:59:07;12.15;;;4.90;;
7529;SDS011;3806;52.270;10.544;2022-07-23T04:01:34;7.97;;;4.72;;
7529;SDS011;3806;52.270;10.544;2022-07-23T04:04:01;8.10;;;4.50;;
7529;SDS011;3806;52.270;10.544;2022-07-23T04:06:27;8.90;;;4.35;;
7529;SDS011;3806;52.270;10.544;2022-07-23T04:08:53;10.73;;;4.75;;
7529;SDS011;3806;52.270;10.544;2022-07-23T04:11:19;11.52;;;4.95;;
7529;SDS011;3806;52.270;10.544;2022-07-23T04:13:45;11.48;;;4.90;;
7529;SDS011;3806;52.270;10.544;2022-07-23T04:16:10;9.90;;;4.57;;
7529;SDS011;3806;52.270;10.544;2022-07-23T04:18:36;9.30;;;5.50;;
7529;SDS011;3806;52.270;10.544;2022-07-23T04:21:02;9.95;;;4.65;;
7529;SDS011;3806;52.270;10.544;2022-07-23T04:23:27;6.65;;;3.63;;
7529;SDS011;3806;52.270;10.544;2022-07-23T04:25:53;6.75;;;4.10;;
7529;SDS011;3806;52.270;10.544;2022-07-23T04:28:18;9.68;;;4.18;;
7529;SDS011;3806;52.270;10.544;2022-07-23T04:30:57;6.57;;;4.15;;
7529;SDS011;3806;52.270;10.544;2022-07-23T04:33:24;8.02;;;4.00;;
7529;SDS011;3806;52.270;10.544;2022-07-23T04:35:49;6.50;;;4.15;;
7529;SDS011;3806;52.270;10.544;2022-07-23T04:38:15;7.35;;;4.57;;
7529;SDS011;3806;52.270;10.544;2022-07-23T04:40:40;7.10;;;4.15;;
7529;SDS011;3806;52.270;10.544;2022-07-23T04:43:06;9.95;;;5.28;;
7529;SDS011;3806;52.270;10.544;2022-07-23T04:45:32;7.95;;;4.72;;
7529;SDS011;3806;52.270;10.544;2022-07-23T04:47:57;9.05;;;4.72;;
7529;SDS011;3806;52.270;10.544;2022-07-23T04:50:23;7.70;;;4.13;;
7529;SDS011;3806;52.270;10.544;2022-07-23T04:52:49;11.32;;;5.13;;
7529;SDS011;3806;52.270;10.544;2022-07-23T04:55:15;5.85;;;4.07;;
7529;SDS011;3806;52.270;10.544;2022-07-23T04:57:41;9.80;;;4.65;;
7529;SDS011;3806;52.270;10.544;2022-07-23T05:00:07;8.35;;;4.53;;
7529;SDS011;3806;52.270;10.544;2022-07-23T05:02:33;6.38;;;4.70;;
7529;SDS011;3806;52.270;10.544;2022-07-23T05:04:59;7.68;;;4.43;;
7529;SDS011;3806;52.270;10.544;2022-07-23T05:07:24;9.77;;;4.53;;
7529;SDS011;3806;52.270;10.544;2022-07-23T05:09:50;8.63;;;4.40;;
7529;SDS011;3806;52.270;10.544;2022-07-23T05:12:16;9.63;;;4.20;;
7529;SDS011;3806;52.270;10.544;2022-07-23T05:14:41;8.20;;;4.47;;
7529;SDS011;3806;52.270;10.544;2022-07-23T05:17:07;11.48;;;5.18;;
7529;SDS011;3806;52.270;10.544;2022-07-23T05:19:33;8.65;;;5.00;;
7529;SDS011;3806;52.270;10.544;2022-07-23T05:21:59;6.18;;;4.63;;
7529;SDS011;3806;52.270;10.544;2022-07-23T05:24:25;8.35;;;4.53;;
7529;SDS011;3806;52.270;10.544;2022-07-23T05:26:51;10.73;;;5.15;;
7529;SDS011;3806;52.270;10.544;2022-07-23T05:29:16;12.75;;;4.78;;
7529;SDS011;3806;52.270;10.544;2022-07-23T05:31:42;7.30;;;4.57;;
7529;SDS011;3806;52.270;10.544;2022-07-23T05:34:08;5.35;;;4.20;;
7529;SDS011;3806;52.270;10.544;2022-07-23T05:36:34;9.63;;;5.13;;
7529;SDS011;3806;52.270;10.544;2022-07-23T05:39:00;11.80;;;4.63;;
7529;SDS011;3806;52.270;10.544;2022-07-23T05:41:25;8.45;;;4.93;;
7529;SDS011;3806;52.270;10.544;2022-07-23T05:43:51;9.80;;;5.05;;
7529;SDS011;3806;52.270;10.544;2022-07-23T05:46:17;9.02;;;4.95;;
7529;SDS011;3806;52.270;10.544;2022-07-23T05:48:42;9.68;;;5.50;;
7529;SDS011;3806;52.270;10.544;2022-07-23T05:51:10;8.75;;;4.88;;
7529;SDS011;3806;52.270;10.544;2022-07-23T05:53:36;10.05;;;4.72;;
7529;SDS011;3806;52.270;10.544;2022-07-23T05:56:03;9.32;;;4.00;;
7529;SDS011;3806;52.270;10.544;2022-07-23T05:58:29;6.80;;;4.35;;
7529;SDS011;3806;52.270;10.544;2022-07-23T06:00:55;8.20;;;4.30;;
7529;SDS011;3806;52.270;10.544;2022-07-23T06:03:20;9.10;;;4.38;;
7529;SDS011;3806;52.270;10.544;2022-07-23T06:05:46;7.25;;;4.60;;
7529;SDS011;3806;52.270;10.544;2022-07-23T06:08:12;5.03;;;4.00;;
7529;SDS011;3806;52.270;10.544;2022-07-23T06:10:37;8.13;;;3.85;;
7529;SDS011;3806;52.270;10.544;2022-07-23T06:13:03;5.63;;;3.20;;
7529;SDS011;3806;52.270;10.544;2022-07-23T06:15:29;8.80;;;3.72;;
7529;SDS011;3806;52.270;10.544;2022-07-23T06:17:55;4.90;;;3.42;;
7529;SDS011;3806;52.270;10.544;2022-07-23T06:20:21;7.45;;;3.95;;
7529;SDS011;3806;52.270;10.544;2022-07-23T06:22:46;5.85;;;3.40;;
7529;SDS011;3806;52.270;10.544;2022-07-23T06:25:12;5.13;;;3.80;;
7529;SDS011;3806;52.270;10.544;2022-07-23T06:27:37;5.93;;;3.83;;
7529;SDS011;3806;52.270;10.544;2022-07-23T06:30:03;4.97;;;2.85;;
7529;SDS011;3806;52.270;10.544;2022-07-23T06:32:30;6.03;;;3.78;;
7529;SDS011;3806;52.270;10.544;2022-07-23T06:34:56;5.03;;;2.80;;
7529;SDS011;3806;52.270;10.544;2022-07-23T06:37:21;6.10;;;3.30;;
7529;SDS011;3806;52.270;10.544;2022-07-23T06:39:47;4.25;;;2.92;;
7529;SDS011;3806;52.270;10.544;2022-07-23T06:42:13;8.95;;;3.45;;
7529;SDS011;3806;52.270;10.544;2022-07-23T06:44:39;8.80;;;3.83;;
7529;SDS011;3806;52.270;10.544;2022-07-23T06:47:06;5.88;;;3.70;;
7529;SDS011;3806;52.270;10.544;2022-07-23T06:49:32;8.07;;;3.60;;
7529;SDS011;3806;52.270;10.544;2022-07-23T06:51:58;4.82;;;3.30;;
7529;SDS011;3806;52.270;10.544;2022-07-23T06:54:23;6.38;;;4.10;;
7529;SDS011;3806;52.270;10.544;2022-07-23T06:56:49;6.40;;;4.07;;
7529;SDS011;3806;52.270;10.544;2022-07-23T06:59:15;8.10;;;4.20;;
7529;SDS011;3806;52.270;10.544;2022-07-23T07:01:41;4.65;;;3.13;;
7529;SDS011;3806;52.270;10.544;2022-07-23T07:04:06;9.55;;;3.80;;
7529;SDS011;3806;52.270;10.544;2022-07-23T07:06:32;6.75;;;3.38;;
7529;SDS011;3806;52.270;10.544;2022-07-23T07:08:57;5.95;;;3.00;;
7529;SDS011;3806;52.270;10.544;2022-07-23T07:11:23;4.97;;;2.70;;
7529;SDS011;3806;52.270;10.544;2022-07-23T07:13:50;6.32;;;3.45;;
7529;SDS011;3806;52.270;10.544;2022-07-23T07:16:16;6.20;;;3.15;;
7529;SDS011;3806;52.270;10.544;2022-07-23T07:18:42;5.05;;;2.80;;
7529;SDS011;3806;52.270;10.544;2022-07-23T07:21:08;6.28;;;3.78;;
7529;SDS011;3806;52.270;10.544;2022-07-23T07:23:33;4.45;;;2.92;;
7529;SDS011;3806;52.270;10.544;2022-07-23T07:25:59;6.57;;;3.45;;
7529;SDS011;3806;52.270;10.544;2022-07-23T07:28:24;4.32;;;2.58;;
7529;SDS011;3806;52.270;10.544;2022-07-23T07:30:50;6.07;;;2.90;;
7529;SDS011;3806;52.270;10.544;2022-07-23T07:33:16;3.58;;;2.40;;
7529;SDS011;3806;52.270;10.544;2022-07-23T07:35:42;5.13;;;3.25;;
7529;SDS011;3806;52.270;10.544;2022-07-23T07:38:07;4.47;;;3.05;;
7529;SDS011;3806;52.270;10.544;2022-07-23T07:40:33;4.60;;;3.30;;
7529;SDS011;3806;52.270;10.544;2022-07-23T07:42:58;5.07;;;2.55;;
7529;SDS011;3806;52.270;10.544;2022-07-23T07:45:24;4.93;;;2.92;;
7529;SDS011;3806;52.270;10.544;2022-07-23T07:47:51;4.47;;;2.40;;
7529;SDS011;3806;52.270;10.544;2022-07-23T07:50:17;5.88;;;2.47;;
7529;SDS011;3806;52.270;10.544;2022-07-23T07:52:44;6.93;;;2.83;;
7529;SDS011;3806;52.270;10.544;2022-07-23T07:55:10;4.50;;;2.58;;
7529;SDS011;3806;52.270;10.544;2022-07-23T07:57:37;4.68;;;2.33;;
7529;SDS011;3806;52.270;10.544;2022-07-23T08:00:03;3.95;;;2.40;;
7529;SDS011;3806;52.270;10.544;2022-07-23T08:02:38;4.35;;;2.30;;
7529;SDS011;3806;52.270;10.544;2022-07-23T08:05:08;4.18;;;2.78;;
7529;SDS011;3806;52.270;10.544;2022-07-23T08:07:34;4.57;;;1.83;;
7529;SDS011;3806;52.270;10.544;2022-07-23T08:10:00;3.97;;;2.05;;
7529;SDS011;3806;52.270;10.544;2022-07-23T08:12:25;4.28;;;2.13;;
7529;SDS011;3806;52.270;10.544;2022-07-23T08:14:51;4.05;;;1.85;;
7529;SDS011;3806;52.270;10.544;2022-07-23T08:17:17;5.18;;;2.20;;
7529;SDS011;3806;52.270;10.544;2022-07-23T08:19:43;2.65;;;1.70;;
7529;SDS011;3806;52.270;10.544;2022-07-23T08:22:08;3.72;;;1.98;;
7529;SDS011;3806;52.270;10.544;2022-07-23T08:24:34;4.70;;;2.03;;
7529;SDS011;3806;52.270;10.544;2022-07-23T08:27:00;11.55;;;2.70;;
7529;SDS011;3806;52.270;10.544;2022-07-23T08:29:25;3.45;;;1.88;;
7529;SDS011;3806;52.270;10.544;2022-07-23T08:31:51;7.43;;;2.05;;
7529;SDS011;3806;52.270;10.544;2022-07-23T08:34:16;4.65;;;2.10;;
7529;SDS011;3806;52.270;10.544;2022-07-23T08:36:42;3.67;;;1.85;;
7529;SDS011;3806;52.270;10.544;2022-07-23T08:39:07;7.30;;;2.15;;
7529;SDS011;3806;52.270;10.544;2022-07-23T08:41:33;5.22;;;1.52;;
7529;SDS011;3806;52.270;10.544;2022-07-23T08:43:59;4.25;;;1.80;;
7529;SDS011;3806;52.270;10.544;2022-07-23T08:46:26;3.78;;;1.58;;
7529;SDS011;3806;52.270;10.544;2022-07-23T08:48:52;4.43;;;1.98;;
7529;SDS011;3806;52.270;10.544;2022-07-23T08:51:19;4.00;;;1.80;;
7529;SDS011;3806;52.270;10.544;2022-07-23T08:53:45;3.53;;;1.80;;
7529;SDS011;3806;52.270;10.544;2022-07-23T08:56:11;9.82;;;2.20;;
7529;SDS011;3806;52.270;10.544;2022-07-23T08:58:37;2.08;;;1.77;;
7529;SDS011;3806;52.270;10.544;2022-07-23T09:01:03;3.47;;;1.60;;
7529;SDS011;3806;52.270;10.544;2022-07-23T09:03:30;4.20;;;2.08;;
7529;SDS011;3806;52.270;10.544;2022-07-23T09:05:57;4.05;;;1.83;;
7529;SDS011;3806;52.270;10.544;2022-07-23T09:08:24;5.45;;;1.60;;
7529;SDS011;3806;52.270;10.544;2022-07-23T09:10:59;3.40;;;1.40;;
7529;SDS011;3806;52.270;10.544;2022-07-23T09:15:58;3.08;;;1.35;;
7529;SDS011;3806;52.270;10.544;2022-07-23T09:21:05;3.25;;;1.30;;
7529;SDS011;3806;52.270;10.544;2022-07-23T09:23:52;4.03;;;1.45;;
7529;SDS011;3806;52.270;10.544;2022-07-23T09:31:45;6.65;;;1.67;;
7529;SDS011;3806;52.270;10.544;2022-07-23T09:36:43;2.00;;;1.38;;
7529;SDS011;3806;52.270;10.544;2022-07-23T09:39:09;5.35;;;1.67;;
7529;SDS011;3806;52.270;10.544;2022-07-23T09:41:42;5.65;;;1.77;;
7529;SDS011;3806;52.270;10.544;2022-07-23T09:44:11;5.22;;;1.10;;
7529;SDS011;3806;52.270;10.544;2022-07-23T09:46:39;3.05;;;1.33;;
7529;SDS011;3806;52.270;10.544;2022-07-23T09:49:16;2.95;;;1.33;;
7529;SDS011;3806;52.270;10.544;2022-07-23T09:51:47;1.75;;;1.42;;
7529;SDS011;3806;52.270;10.544;2022-07-23T09:54:20;4.72;;;1.77;;
7529;SDS011;3806;52.270;10.544;2022-07-23T09:56:45;2.30;;;1.48;;
7529;SDS011;3806;52.270;10.544;2022-07-23T09:59:12;3.50;;;1.52;;
7529;SDS011;3806;52.270;10.544;2022-07-23T10:01:43;3.92;;;1.63;;
7529;SDS011;3806;52.270;10.544;2022-07-23T10:04:10;3.00;;;1.50;;
7529;SDS011;3806;52.270;10.544;2022-07-23T10:06:38;6.05;;;2.10;;
7529;SDS011;3806;52.270;10.544;2022-07-23T10:09:05;5.55;;;2.15;;
7529;SDS011;3806;52.270;10.544;2022-07-23T10:11:33;4.32;;;1.77;;
7529;SDS011;3806;52.270;10.544;2022-07-23T10:13:59;3.80;;;1.52;;
7529;SDS011;3806;52.270;10.544;2022-07-23T10:16:31;4.32;;;1.60;;
7529;SDS011;3806;52.270;10.544;2022-07-23T10:19:00;2.05;;;1.58;;
7529;SDS011;3806;52.270;10.544;2022-07-23T10:21:34;2.45;;;1.83;;
7529;SDS011;3806;52.270;10.544;2022-07-23T10:24:30;4.78;;;2.38;;
7529;SDS011;3806;52.270;10.544;2022-07-23T10:27:10;19.27;;;3.08;;
7529;SDS011;3806;52.270;10.544;2022-07-23T10:30:02;2.72;;;1.55;;
7529;SDS011;3806;52.270;10.544;2022-07-23T10:38:01;7.25;;;1.63;;
7529;SDS011;3806;52.270;10.544;2022-07-23T10:40:56;4.13;;;1.33;;
7529;SDS011;3806;52.270;10.544;2022-07-23T10:43:24;2.63;;;2.08;;
7529;SDS011;3806;52.270;10.544;2022-07-23T10:45:50;2.83;;;1.40;;
7529;SDS011;3806;52.270;10.544;2022-07-23T10:51:11;3.85;;;1.50;;
7529;SDS011;3806;52.270;10.544;2022-07-23T10:56:16;3.67;;;1.60;;
7529;SDS011;3806;52.270;10.544;2022-07-23T10:59:03;4.80;;;1.38;;
7529;SDS011;3806;52.270;10.544;2022-07-23T11:01:38;6.30;;;2.10;;
7529;SDS011;3806;52.270;10.544;2022-07-23T11:12:53;1.60;;;1.40;;
7529;SDS011;3806;52.270;10.544;2022-07-23T11:17:33;1.20;;;1.08;;
7529;SDS011;3806;52.270;10.544;2022-07-23T11:25:09;2.17;;;1.30;;
7529;SDS011;3806;52.270;10.544;2022-07-23T11:27:40;2.42;;;1.27;;
7529;SDS011;3806;52.270;10.544;2022-07-23T11:30:07;4.35;;;1.25;;
7529;SDS011;3806;52.270;10.544;2022-07-23T11:32:35;3.33;;;1.27;;
7529;SDS011;3806;52.270;10.544;2022-07-23T11:35:17;2.03;;;1.35;;
7529;SDS011;3806;52.270;10.544;2022-07-23T11:37:54;3.05;;;1.30;;
7529;SDS011;3806;52.270;10.544;2022-07-23T11:40:28;2.33;;;1.13;;
7529;SDS011;3806;52.270;10.544;2022-07-23T11:43:01;1.40;;;1.30;;
7529;SDS011;3806;52.270;10.544;2022-07-23T11:45:32;4.70;;;1.20;;
7529;SDS011;3806;52.270;10.544;2022-07-23T11:48:15;2.83;;;1.08;;
7529;SDS011;3806;52.270;10.544;2022-07-23T11:50:51;1.63;;;0.98;;
7529;SDS011;3806;52.270;10.544;2022-07-23T11:53:24;1.67;;;1.02;;
7529;SDS011;3806;52.270;10.544;2022-07-23T11:56:11;1.85;;;1.13;;
7529;SDS011;3806;52.270;10.544;2022-07-23T11:58:37;1.42;;;0.80;;
7529;SDS011;3806;52.270;10.544;2022-07-23T12:01:04;1.38;;;0.80;;
7529;SDS011;3806;52.270;10.544;2022-07-23T12:03:30;3.70;;;1.00;;
7529;SDS011;3806;52.270;10.544;2022-07-23T12:05:56;3.70;;;1.35;;
7529;SDS011;3806;52.270;10.544;2022-07-23T12:08:23;1.60;;;0.90;;
7529;SDS011;3806;52.270;10.544;2022-07-23T12:10:49;1.42;;;0.80;;
7529;SDS011;3806;52.270;10.544;2022-07-23T12:13:16;1.63;;;0.95;;
7529;SDS011;3806;52.270;10.544;2022-07-23T12:15:47;1.45;;;0.95;;
7529;SDS011;3806;52.270;10.544;2022-07-23T12:18:23;2.10;;;1.08;;
7529;SDS011;3806;52.270;10.544;2022-07-23T12:20:52;1.90;;;1.30;;
7529;SDS011;3806;52.270;10.544;2022-07-23T12:23:21;2.83;;;1.05;;
7529;SDS011;3806;52.270;10.544;2022-07-23T12:25:49;1.70;;;1.10;;
7529;SDS011;3806;52.270;10.544;2022-07-23T12:28:19;3.17;;;1.13;;
7529;SDS011;3806;52.270;10.544;2022-07-23T12:30:50;3.22;;;0.90;;
7529;SDS011;3806;52.270;10.544;2022-07-23T12:33:22;1.77;;;1.10;;
7529;SDS011;3806;52.270;10.544;2022-07-23T12:35:48;1.52;;;1.00;;
7529;SDS011;3806;52.270;10.544;2022-07-23T12:38:16;1.50;;;0.93;;
7529;SDS011;3806;52.270;10.544;2022-07-23T12:40:45;2.38;;;0.93;;
7529;SDS011;3806;52.270;10.544;2022-07-23T12:43:25;1.45;;;0.77;;
7529;SDS011;3806;52.270;10.544;2022-07-23T12:45:53;3.55;;;1.10;;
7529;SDS011;3806;52.270;10.544;2022-07-23T12:48:32;0.75;;;0.70;;
7529;SDS011;3806;52.270;10.544;2022-07-23T12:51:02;2.22;;;0.98;;
7529;SDS011;3806;52.270;10.544;2022-07-23T12:56:06;1.02;;;0.90;;
7529;SDS011;3806;52.270;10.544;2022-07-23T12:58:40;1.20;;;0.90;;
7529;SDS011;3806;52.270;10.544;2022-07-23T13:01:09;2.45;;;0.90;;
7529;SDS011;3806;52.270;10.544;2022-07-23T13:04:00;4.13;;;0.95;;
7529;SDS011;3806;52.270;10.544;2022-07-23T13:06:37;5.18;;;1.58;;
7529;SDS011;3806;52.270;10.544;2022-07-23T13:09:08;1.95;;;1.13;;
7529;SDS011;3806;52.270;10.544;2022-07-23T13:11:35;2.60;;;0.95;;
7529;SDS011;3806;52.270;10.544;2022-07-23T13:14:01;3.42;;;1.20;;
7529;SDS011;3806;52.270;10.544;2022-07-23T13:16:27;1.38;;;1.08;;
7529;SDS011;3806;52.270;10.544;2022-07-23T13:18:54;1.63;;;0.95;;
7529;SDS011;3806;52.270;10.544;2022-07-23T13:21:21;1.27;;;0.90;;
7529;SDS011;3806;52.270;10.544;2022-07-23T13:23:47;1.40;;;1.17;;
7529;SDS011;3806;52.270;10.544;2022-07-23T13:26:13;2.05;;;1.15;;
7529;SDS011;3806;52.270;10.544;2022-07-23T13:28:38;0.77;;;0.77;;
7529;SDS011;3806;52.270;10.544;2022-07-23T13:31:04;2.10;;;1.00;;
7529;SDS011;3806;52.270;10.544;2022-07-23T13:33:29;2.67;;;1.10;;
7529;SDS011;3806;52.270;10.544;2022-07-23T13:35:55;2.85;;;0.80;;
7529;SDS011;3806;52.270;10.544;2022-07-23T13:38:21;1.58;;;1.30;;
7529;SDS011;3806;52.270;10.544;2022-07-23T13:40:48;1.20;;;1.00;;
7529;SDS011;3806;52.270;10.544;2022-07-23T13:43:15;1.35;;;1.10;;
7529;SDS011;3806;52.270;10.544;2022-07-23T13:45:42;1.02;;;0.88;;
7529;SDS011;3806;52.270;10.544;2022-07-23T13:48:09;1.92;;;1.02;;
7529;SDS011;3806;52.270;10.544;2022-07-23T13:50:36;1.13;;;0.90;;
7529;SDS011;3806;52.270;10.544;2022-07-23T13:53:03;1.00;;;0.88;;
7529;SDS011;3806;52.270;10.544;2022-07-23T13:55:30;3.13;;;0.95;;
7529;SDS011;3806;52.270;10.544;2022-07-23T13:57:57;3.80;;;0.90;;
7529;SDS011;3806;52.270;10.544;2022-07-23T14:00:23;1.45;;;0.80;;
7529;SDS011;3806;52.270;10.544;2022-07-23T14:02:50;1.13;;;0.98;;
7529;SDS011;3806;52.270;10.544;2022-07-23T14:05:15;0.70;;;0.70;;
7529;SDS011;3806;52.270;10.544;2022-07-23T14:07:41;3.22;;;1.08;;
7529;SDS011;3806;52.270;10.544;2022-07-23T14:10:09;1.27;;;0.73;;
7529;SDS011;3806;52.270;10.544;2022-07-23T14:12:35;1.15;;;0.77;;
7529;SDS011;3806;52.270;10.544;2022-07-23T14:15:02;1.83;;;1.00;;
7529;SDS011;3806;52.270;10.544;2022-07-23T14:17:29;0.73;;;0.70;;
7529;SDS011;3806;52.270;10.544;2022-07-23T14:19:56;1.65;;;0.88;;
7529;SDS011;3806;52.270;10.544;2022-07-23T14:22:22;1.15;;;0.70;;
7529;SDS011;3806;52.270;10.544;2022-07-23T14:24:48;0.80;;;0.70;;
7529;SDS011;3806;52.270;10.544;2022-07-23T14:27:14;1.45;;;0.70;;
7529;SDS011;3806;52.270;10.544;2022-07-23T14:29:39;2.47;;;0.70;;
7529;SDS011;3806;52.270;10.544;2022-07-23T14:32:05;1.23;;;0.90;;
7529;SDS011;3806;52.270;10.544;2022-07-23T14:34:31;0.60;;;0.60;;
7529;SDS011;3806;52.270;10.544;2022-07-23T14:36:57;1.35;;;0.68;;
7529;SDS011;3806;52.270;10.544;2022-07-23T14:39:23;1.02;;;0.75;;
7529;SDS011;3806;52.270;10.544;2022-07-23T14:41:49;1.00;;;0.70;;
7529;SDS011;3806;52.270;10.544;2022-07-23T14:44:14;1.08;;;0.60;;
7529;SDS011;3806;52.270;10.544;2022-07-23T14:46:40;0.80;;;0.55;;
7529;SDS011;3806;52.270;10.544;2022-07-23T14:49:06;3.42;;;0.80;;
7529;SDS011;3806;52.270;10.544;2022-07-23T14:51:32;1.15;;;0.60;;
7529;SDS011;3806;52.270;10.544;2022-07-23T14:53:57;2.45;;;0.80;;
7529;SDS011;3806;52.270;10.544;2022-07-23T14:56:23;4.10;;;0.65;;
7529;SDS011;3806;52.270;10.544;2022-07-23T14:58:49;3.10;;;1.08;;
7529;SDS011;3806;52.270;10.544;2022-07-23T15:01:14;0.73;;;0.60;;
7529;SDS011;3806;52.270;10.544;2022-07-23T15:03:41;1.27;;;0.80;;
7529;SDS011;3806;52.270;10.544;2022-07-23T15:06:06;0.63;;;0.60;;
7529;SDS011;3806;52.270;10.544;2022-07-23T15:08:32;2.17;;;0.70;;
7529;SDS011;3806;52.270;10.544;2022-07-23T15:10:58;3.20;;;0.82;;
7529;SDS011;3806;52.270;10.544;2022-07-23T15:13:24;2.53;;;0.50;;
7529;SDS011;3806;52.270;10.544;2022-07-23T15:15:49;0.85;;;0.50;;
7529;SDS011;3806;52.270;10.544;2022-07-23T15:18:15;1.67;;;0.52;;
7529;SDS011;3806;52.270;10.544;2022-07-23T15:20:41;1.17;;;0.80;;
7529;SDS011;3806;52.270;10.544;2022-07-23T15:23:07;0.52;;;0.52;;
7529;SDS011;3806;52.270;10.544;2022-07-23T15:25:33;0.73;;;0.50;;
7529;SDS011;3806;52.270;10.544;2022-07-23T15:28:00;1.65;;;0.60;;
7529;SDS011;3806;52.270;10.544;2022-07-23T15:30:26;1.48;;;0.63;;
7529;SDS011;3806;52.270;10.544;2022-07-23T15:32:52;0.63;;;0.60;;
7529;SDS011;3806;52.270;10.544;2022-07-23T15:35:18;0.93;;;0.55;;
7529;SDS011;3806;52.270;10.544;2022-07-23T15:37:44;0.40;;;0.40;;
7529;SDS011;3806;52.270;10.544;2022-07-23T15:40:10;2.13;;;0.73;;
7529;SDS011;3806;52.270;10.544;2022-07-23T15:42:36;0.73;;;0.50;;
7529;SDS011;3806;52.270;10.544;2022-07-23T15:45:02;2.45;;;1.35;;